sensor_id;sensor_type;location;lat;lon;timestamp;pressure;altitude;pressure_sealevel;temperature;humidity
80186;BME280;69904;52.122;5.422;2023-06-19T00:02:23;100784.66;;;22.17;49.81
80186;BME280;69904;52.122;5.422;2023-06-19T00:04:50;100781.09;;;22.12;49.83
80186;BME280;69904;52.122;5.422;2023-06-19T00:07:17;100789.63;;;22.10;50.02
80186;BME280;69904;52.122;5.422;2023-06-19T00:09:43;100784.97;;;22.11;49.68
80186;BME280;69904;52.122;5.422;2023-06-19T00:12:09;100789.06;;;22.08;50.01
80186;BME280;69904;52.122;5.422;2023-06-19T00:14:37;100783.00;;;22.06;49.98
80186;BME280;69904;52.122;5.422;2023-06-19T00:17:04;100783.31;;;22.05;50.00
80186;BME280;69904;52.122;5.422;2023-06-19T00:19:32;100784.41;;;22.04;50.46
80186;BME280;69904;52.122;5.422;2023-06-19T00:22:03;100776.97;;;21.99;50.44
80186;BME280;69904;52.122;5.422;2023-06-19T00:24:30;100779.72;;;21.99;50.47
80186;BME280;69904;52.122;5.422;2023-06-19T00:26:56;100780.00;;;21.98;50.58
80186;BME280;69904;52.122;5.422;2023-06-19T00:29:32;100781.91;;;21.97;50.81
80186;BME280;69904;52.122;5.422;2023-06-19T00:31:59;100781.91;;;21.97;51.21
80186;BME280;69904;52.122;5.422;2023-06-19T00:34:25;100780.25;;;21.96;51.38
80186;BME280;69904;52.122;5.422;2023-06-19T00:36:52;100785.75;;;21.96;52.03
80186;BME280;69904;52.122;5.422;2023-06-19T00:39:25;100790.16;;;21.97;52.21
80186;BME280;69904;52.122;5.422;2023-06-19T00:41:52;100785.75;;;21.96;52.71
80186;BME280;69904;52.122;5.422;2023-06-19T00:44:19;100797.88;;;21.95;52.66
80186;BME280;69904;52.122;5.422;2023-06-19T00:46:45;100804.97;;;21.91;52.46
80186;BME280;69904;52.122;5.422;2023-06-19T00:49:14;100808.25;;;21.88;53.27
80186;BME280;69904;52.122;5.422;2023-06-19T00:51:41;100814.28;;;21.85;53.76
80186;BME280;69904;52.122;5.422;2023-06-19T00:54:07;100813.19;;;21.81;53.91
80186;BME280;69904;52.122;5.422;2023-06-19T00:56:37;100805.50;;;21.78;54.29
80186;BME280;69904;52.122;5.422;2023-06-19T00:59:06;100803.28;;;21.75;54.77
80186;BME280;69904;52.122;5.422;2023-06-19T01:01:34;100808.25;;;21.73;54.86
80186;BME280;69904;52.122;5.422;2023-06-19T01:04:00;100814.28;;;21.70;55.15
80186;BME280;69904;52.122;5.422;2023-06-19T01:06:32;100815.34;;;21.64;56.09
80186;BME280;69904;52.122;5.422;2023-06-19T01:09:07;100811.78;;;21.58;55.89
80186;BME280;69904;52.122;5.422;2023-06-19T01:11:46;100811.50;;;21.55;56.43
80186;BME280;69904;52.122;5.422;2023-06-19T01:14:18;100826.03;;;21.50;56.47
80186;BME280;69904;52.122;5.422;2023-06-19T01:16:46;100823.28;;;21.45;57.35
80186;BME280;69904;52.122;5.422;2023-06-19T01:19:18;100819.94;;;21.38;57.42
80186;BME280;69904;52.122;5.422;2023-06-19T01:21:47;100827.91;;;21.34;57.92
80186;BME280;69904;52.122;5.422;2023-06-19T01:24:14;100827.91;;;21.29;58.27
80186;BME280;69904;52.122;5.422;2023-06-19T01:26:41;100837.78;;;21.25;58.34
80186;BME280;69904;52.122;5.422;2023-06-19T01:29:08;100837.47;;;21.22;58.69
80186;BME280;69904;52.122;5.422;2023-06-19T01:31:59;100832.78;;;21.17;58.75
80186;BME280;69904;52.122;5.422;2023-06-19T01:34:29;100847.53;;;21.11;59.59
80186;BME280;69904;52.122;5.422;2023-06-19T01:36:56;100839.03;;;21.08;59.35
80186;BME280;69904;52.122;5.422;2023-06-19T01:39:24;100843.09;;;21.00;60.39
80186;BME280;69904;52.122;5.422;2023-06-19T01:41:51;100854.59;;;20.97;60.60
80186;BME280;69904;52.122;5.422;2023-06-19T01:44:18;100847.69;;;20.89;61.36
80186;BME280;69904;52.122;5.422;2023-06-19T01:46:49;100849.88;;;20.82;61.57
80186;BME280;69904;52.122;5.422;2023-06-19T01:49:17;100858.06;;;20.77;62.31
80186;BME280;69904;52.122;5.422;2023-06-19T01:51:43;100844.81;;;20.69;62.35
80186;BME280;69904;52.122;5.422;2023-06-19T01:54:10;100844.53;;;20.66;62.34
80186;BME280;69904;52.122;5.422;2023-06-19T01:56:37;100854.94;;;20.64;62.70
80186;BME280;69904;52.122;5.422;2023-06-19T01:59:03;100859.88;;;20.62;63.14
80186;BME280;69904;52.122;5.422;2023-06-19T02:01:30;100855.72;;;20.59;62.79
80186;BME280;69904;52.122;5.422;2023-06-19T02:03:56;100855.44;;;20.55;63.65
80186;BME280;69904;52.122;5.422;2023-06-19T02:06:23;100859.84;;;20.56;63.44
80186;BME280;69904;52.122;5.422;2023-06-19T02:08:49;100871.91;;;20.55;63.69
80186;BME280;69904;52.122;5.422;2023-06-19T02:11:16;100862.00;;;20.54;63.59
80186;BME280;69904;52.122;5.422;2023-06-19T02:13:42;100862.25;;;20.53;64.09
80186;BME280;69904;52.122;5.422;2023-06-19T02:16:09;100861.97;;;20.49;64.84
80186;BME280;69904;52.122;5.422;2023-06-19T02:18:35;100861.41;;;20.47;65.08
80186;BME280;69904;52.122;5.422;2023-06-19T02:21:02;100867.97;;;20.46;64.96
80186;BME280;69904;52.122;5.422;2023-06-19T02:23:28;100859.19;;;20.44;65.08
80186;BME280;69904;52.122;5.422;2023-06-19T02:25:55;100874.00;;;20.43;65.67
80186;BME280;69904;52.122;5.422;2023-06-19T02:28:21;100869.59;;;20.42;65.95
80186;BME280;69904;52.122;5.422;2023-06-19T02:30:47;100871.25;;;20.43;65.97
80186;BME280;69904;52.122;5.422;2023-06-19T02:33:14;100875.91;;;20.43;65.29
80186;BME280;69904;52.122;5.422;2023-06-19T02:35:40;100871.47;;;20.37;66.30
80186;BME280;69904;52.122;5.422;2023-06-19T02:38:08;100873.94;;;20.38;66.00
80186;BME280;69904;52.122;5.422;2023-06-19T02:40:34;100876.13;;;20.36;65.79
80186;BME280;69904;52.122;5.422;2023-06-19T02:43:00;100873.06;;;20.33;66.99
80186;BME280;69904;52.122;5.422;2023-06-19T02:45:27;100879.63;;;20.32;66.80
80186;BME280;69904;52.122;5.422;2023-06-19T02:47:53;100874.66;;;20.29;66.63
80186;BME280;69904;52.122;5.422;2023-06-19T02:50:20;100882.59;;;20.30;67.14
80186;BME280;69904;52.122;5.422;2023-06-19T02:52:47;100888.38;;;20.29;67.44
80186;BME280;69904;52.122;5.422;2023-06-19T02:55:13;100894.09;;;20.27;67.40
80186;BME280;69904;52.122;5.422;2023-06-19T02:57:40;100901.50;;;20.27;67.39
80186;BME280;69904;52.122;5.422;2023-06-19T03:00:07;100894.09;;;20.27;67.74
80186;BME280;69904;52.122;5.422;2023-06-19T03:02:35;100900.66;;;20.26;67.71
80186;BME280;69904;52.122;5.422;2023-06-19T03:05:02;100895.19;;;20.26;67.71
80186;BME280;69904;52.122;5.422;2023-06-19T03:07:29;100900.66;;;20.26;67.41
80186;BME280;69904;52.122;5.422;2023-06-19T03:09:55;100893.84;;;20.29;67.53
80186;BME280;69904;52.122;5.422;2023-06-19T03:12:22;100894.34;;;20.26;68.65
80186;BME280;69904;52.122;5.422;2023-06-19T03:14:48;100887.22;;;20.25;67.51
80186;BME280;69904;52.122;5.422;2023-06-19T03:17:14;100895.97;;;20.22;68.18
80186;BME280;69904;52.122;5.422;2023-06-19T03:19:41;100891.03;;;20.18;68.72
80186;BME280;69904;52.122;5.422;2023-06-19T03:22:07;100886.63;;;20.17;68.73
80186;BME280;69904;52.122;5.422;2023-06-19T03:24:34;100888.78;;;20.15;69.27
80186;BME280;69904;52.122;5.422;2023-06-19T03:27:00;100894.25;;;20.15;69.02
80186;BME280;69904;52.122;5.422;2023-06-19T03:29:27;100902.47;;;20.15;68.36
80186;BME280;69904;52.122;5.422;2023-06-19T03:31:54;100904.66;;;20.13;69.00
80186;BME280;69904;52.122;5.422;2023-06-19T03:34:20;100897.53;;;20.12;69.41
80186;BME280;69904;52.122;5.422;2023-06-19T03:36:46;100911.22;;;20.12;69.76
80186;BME280;69904;52.122;5.422;2023-06-19T03:39:13;100916.13;;;20.10;69.71
80186;BME280;69904;52.122;5.422;2023-06-19T03:41:40;100915.00;;;20.06;69.81
80186;BME280;69904;52.122;5.422;2023-06-19T03:44:06;100922.69;;;20.09;69.53
80186;BME280;69904;52.122;5.422;2023-06-19T03:46:33;100926.75;;;20.02;70.67
80186;BME280;69904;52.122;5.422;2023-06-19T03:48:59;100925.66;;;20.03;70.16
80186;BME280;69904;52.122;5.422;2023-06-19T03:51:26;100935.47;;;19.99;70.83
80186;BME280;69904;52.122;5.422;2023-06-19T03:53:55;100936.56;;;19.98;71.17
80186;BME280;69904;52.122;5.422;2023-06-19T03:56:21;100945.03;;;19.96;71.48
80186;BME280;69904;52.122;5.422;2023-06-19T03:58:48;100939.22;;;19.93;71.99
80186;BME280;69904;52.122;5.422;2023-06-19T04:01:14;100940.81;;;19.89;72.45
80186;BME280;69904;52.122;5.422;2023-06-19T04:03:41;100944.59;;;19.83;73.57
80186;BME280;69904;52.122;5.422;2023-06-19T04:06:07;100950.59;;;19.80;73.22
80186;BME280;69904;52.122;5.422;2023-06-19T04:08:34;100949.19;;;19.77;74.20
80186;BME280;69904;52.122;5.422;2023-06-19T04:11:00;100954.34;;;19.73;73.35
80186;BME280;69904;52.122;5.422;2023-06-19T04:13:27;100953.03;;;19.76;74.46
80186;BME280;69904;52.122;5.422;2023-06-19T04:15:53;100955.44;;;19.72;74.44
80186;BME280;69904;52.122;5.422;2023-06-19T04:18:19;100962.81;;;19.72;74.18
80186;BME280;69904;52.122;5.422;2023-06-19T04:20:46;100960.34;;;19.70;74.62
80186;BME280;69904;52.122;5.422;2023-06-19T04:23:12;100961.19;;;19.71;74.66
80186;BME280;69904;52.122;5.422;2023-06-19T04:25:39;100972.63;;;19.68;74.78
80186;BME280;69904;52.122;5.422;2023-06-19T04:28:05;100965.75;;;19.65;75.30
80186;BME280;69904;52.122;5.422;2023-06-19T04:30:32;100975.88;;;19.65;75.12
80186;BME280;69904;52.122;5.422;2023-06-19T04:32:59;100973.97;;;19.65;75.22
80186;BME280;69904;52.122;5.422;2023-06-19T04:35:25;100984.66;;;19.67;75.13
80186;BME280;69904;52.122;5.422;2023-06-19T04:37:53;100993.16;;;19.65;75.28
80186;BME280;69904;52.122;5.422;2023-06-19T04:40:19;100992.31;;;19.65;75.61
80186;BME280;69904;52.122;5.422;2023-06-19T04:42:46;100995.63;;;19.67;76.15
80186;BME280;69904;52.122;5.422;2023-06-19T04:45:12;100989.31;;;19.66;76.02
80186;BME280;69904;52.122;5.422;2023-06-19T04:47:39;100990.34;;;19.60;76.25
80186;BME280;69904;52.122;5.422;2023-06-19T04:50:19;100998.47;;;19.55;76.31
80186;BME280;69904;52.122;5.422;2023-06-19T04:52:45;101011.34;;;19.55;76.40
80186;BME280;69904;52.122;5.422;2023-06-19T04:55:13;101010.69;;;19.48;76.07
80186;BME280;69904;52.122;5.422;2023-06-19T04:57:40;101012.09;;;19.50;75.54
80186;BME280;69904;52.122;5.422;2023-06-19T05:00:06;101020.88;;;19.52;74.84
80186;BME280;69904;52.122;5.422;2023-06-19T05:02:33;101000.06;;;19.51;74.67
80186;BME280;69904;52.122;5.422;2023-06-19T05:05:00;101016.47;;;19.51;74.09
80186;BME280;69904;52.122;5.422;2023-06-19T05:07:30;101016.75;;;19.50;74.00
80186;BME280;69904;52.122;5.422;2023-06-19T05:09:58;101023.78;;;19.46;74.00
80186;BME280;69904;52.122;5.422;2023-06-19T05:12:24;101033.91;;;19.45;74.37
80186;BME280;69904;52.122;5.422;2023-06-19T05:14:51;101022.84;;;19.40;74.47
80186;BME280;69904;52.122;5.422;2023-06-19T05:17:17;101022.59;;;19.42;74.29
80186;BME280;69904;52.122;5.422;2023-06-19T05:19:44;101026.53;;;19.46;74.15
80186;BME280;69904;52.122;5.422;2023-06-19T05:22:10;101032.25;;;19.44;73.57
80186;BME280;69904;52.122;5.422;2023-06-19T05:24:37;101030.81;;;19.42;74.30
80186;BME280;69904;52.122;5.422;2023-06-19T05:27:03;101039.38;;;19.45;73.57
80186;BME280;69904;52.122;5.422;2023-06-19T05:29:30;101043.44;;;19.43;73.31
80186;BME280;69904;52.122;5.422;2023-06-19T05:31:57;101044.75;;;19.40;72.80
80186;BME280;69904;52.122;5.422;2023-06-19T05:34:23;101036.81;;;19.39;72.75
80186;BME280;69904;52.122;5.422;2023-06-19T05:36:49;101043.13;;;19.39;72.77
80186;BME280;69904;52.122;5.422;2023-06-19T05:39:16;101034.63;;;19.41;72.94
80186;BME280;69904;52.122;5.422;2023-06-19T05:41:45;101041.19;;;19.40;72.08
80186;BME280;69904;52.122;5.422;2023-06-19T05:44:14;101046.94;;;19.38;71.86
80186;BME280;69904;52.122;5.422;2023-06-19T05:46:42;101063.34;;;19.38;72.30
80186;BME280;69904;52.122;5.422;2023-06-19T05:49:09;101060.28;;;19.34;72.39
80186;BME280;69904;52.122;5.422;2023-06-19T05:51:35;101064.34;;;19.32;72.58
80186;BME280;69904;52.122;5.422;2023-06-19T05:54:02;101064.84;;;19.29;72.61
80186;BME280;69904;52.122;5.422;2023-06-19T05:56:31;101059.94;;;19.31;72.63
80186;BME280;69904;52.122;5.422;2023-06-19T05:59:00;101059.44;;;19.34;72.97
80186;BME280;69904;52.122;5.422;2023-06-19T06:01:28;101066.25;;;19.31;72.86
80186;BME280;69904;52.122;5.422;2023-06-19T06:03:56;101060.19;;;19.29;73.22
80186;BME280;69904;52.122;5.422;2023-06-19T06:06:23;101058.03;;;19.31;73.09
80186;BME280;69904;52.122;5.422;2023-06-19T06:08:50;101060.47;;;19.28;73.13
80186;BME280;69904;52.122;5.422;2023-06-19T06:11:18;101068.75;;;19.33;73.18
80186;BME280;69904;52.122;5.422;2023-06-19T06:13:44;101080.03;;;19.37;72.93
80186;BME280;69904;52.122;5.422;2023-06-19T06:16:11;101079.69;;;19.33;72.77
80186;BME280;69904;52.122;5.422;2023-06-19T06:18:37;101091.56;;;19.39;72.30
80186;BME280;69904;52.122;5.422;2023-06-19T06:21:03;101099.03;;;19.43;71.91
80186;BME280;69904;52.122;5.422;2023-06-19T06:23:30;101102.75;;;19.37;71.66
80186;BME280;69904;52.122;5.422;2023-06-19T06:25:57;101102.94;;;19.47;71.83
80186;BME280;69904;52.122;5.422;2023-06-19T06:28:28;101109.13;;;19.43;71.37
80186;BME280;69904;52.122;5.422;2023-06-19T06:30:54;101105.16;;;19.50;70.41
80186;BME280;69904;52.122;5.422;2023-06-19T06:33:21;101110.56;;;19.62;68.88
80186;BME280;69904;52.122;5.422;2023-06-19T06:35:47;101110.81;;;19.60;68.24
80186;BME280;69904;52.122;5.422;2023-06-19T06:38:14;101115.88;;;19.68;67.49
80186;BME280;69904;52.122;5.422;2023-06-19T06:40:40;101118.75;;;19.79;67.15
80186;BME280;69904;52.122;5.422;2023-06-19T06:43:08;101112.44;;;19.78;67.25
80186;BME280;69904;52.122;5.422;2023-06-19T06:45:35;101118.00;;;19.83;66.38
80186;BME280;69904;52.122;5.422;2023-06-19T06:48:07;101121.25;;;19.80;66.33
80186;BME280;69904;52.122;5.422;2023-06-19T06:50:33;101127.56;;;19.81;66.28
80186;BME280;69904;52.122;5.422;2023-06-19T06:53:00;101135.25;;;19.84;65.98
80186;BME280;69904;52.122;5.422;2023-06-19T06:55:26;101129.56;;;19.68;66.41
80186;BME280;69904;52.122;5.422;2023-06-19T06:57:53;101143.00;;;19.70;66.57
80186;BME280;69904;52.122;5.422;2023-06-19T07:00:19;101135.88;;;19.69;66.82
80186;BME280;69904;52.122;5.422;2023-06-19T07:02:46;101146.22;;;19.67;66.52
80186;BME280;69904;52.122;5.422;2023-06-19T07:05:14;101147.97;;;19.73;66.97
80186;BME280;69904;52.122;5.422;2023-06-19T07:07:41;101147.56;;;19.81;65.87
80186;BME280;69904;52.122;5.422;2023-06-19T07:10:08;101160.91;;;19.77;65.72
80186;BME280;69904;52.122;5.422;2023-06-19T07:12:35;101153.28;;;19.80;66.14
80186;BME280;69904;52.122;5.422;2023-06-19T07:15:02;101159.84;;;19.79;66.25
80186;BME280;69904;52.122;5.422;2023-06-19T07:17:29;101166.88;;;19.91;66.30
80186;BME280;69904;52.122;5.422;2023-06-19T07:19:55;101169.34;;;19.93;66.33
80186;BME280;69904;52.122;5.422;2023-06-19T07:22:22;101172.59;;;19.90;66.79
80186;BME280;69904;52.122;5.422;2023-06-19T07:24:48;101174.28;;;19.91;67.01
80186;BME280;69904;52.122;5.422;2023-06-19T07:27:14;101182.97;;;19.88;67.52
80186;BME280;69904;52.122;5.422;2023-06-19T07:29:41;101180.44;;;19.81;67.85
80186;BME280;69904;52.122;5.422;2023-06-19T07:32:07;101189.22;;;19.83;68.34
80186;BME280;69904;52.122;5.422;2023-06-19T07:34:34;101187.97;;;19.74;68.45
80186;BME280;69904;52.122;5.422;2023-06-19T07:37:00;101196.59;;;19.83;68.52
80186;BME280;69904;52.122;5.422;2023-06-19T07:39:26;101195.53;;;19.67;68.04
80186;BME280;69904;52.122;5.422;2023-06-19T07:41:53;101209.13;;;19.62;67.73
80186;BME280;69904;52.122;5.422;2023-06-19T07:44:19;101200.44;;;19.65;67.43
80186;BME280;69904;52.122;5.422;2023-06-19T07:46:47;101198.63;;;19.70;65.82
80186;BME280;69904;52.122;5.422;2023-06-19T07:49:13;101194.13;;;19.81;65.77
80186;BME280;69904;52.122;5.422;2023-06-19T07:51:40;101207.56;;;19.83;65.14
80186;BME280;69904;52.122;5.422;2023-06-19T07:54:06;101207.56;;;19.83;64.91
80186;BME280;69904;52.122;5.422;2023-06-19T07:56:33;101215.94;;;19.93;64.60
80186;BME280;69904;52.122;5.422;2023-06-19T07:58:59;101224.97;;;19.93;64.70
80186;BME280;69904;52.122;5.422;2023-06-19T08:01:26;101224.81;;;20.00;64.63
80186;BME280;69904;52.122;5.422;2023-06-19T08:03:53;101230.47;;;19.93;65.04
80186;BME280;69904;52.122;5.422;2023-06-19T08:06:20;101231.47;;;19.87;65.23
80186;BME280;69904;52.122;5.422;2023-06-19T08:08:46;101230.06;;;19.85;65.18
80186;BME280;69904;52.122;5.422;2023-06-19T08:11:13;101225.72;;;19.89;65.47
80186;BME280;69904;52.122;5.422;2023-06-19T08:13:39;101229.75;;;19.81;65.60
80186;BME280;69904;52.122;5.422;2023-06-19T08:16:06;101220.19;;;19.84;65.52
80186;BME280;69904;52.122;5.422;2023-06-19T08:18:33;101228.16;;;19.85;64.88
80186;BME280;69904;52.122;5.422;2023-06-19T08:20:59;101234.47;;;19.86;64.89
80186;BME280;69904;52.122;5.422;2023-06-19T08:23:26;101235.28;;;19.86;65.56
80186;BME280;69904;52.122;5.422;2023-06-19T08:25:52;101239.44;;;19.89;65.22
80186;BME280;69904;52.122;5.422;2023-06-19T08:28:19;101234.69;;;20.01;64.61
80186;BME280;69904;52.122;5.422;2023-06-19T08:30:45;101235.94;;;20.10;64.32
80186;BME280;69904;52.122;5.422;2023-06-19T08:33:15;101243.59;;;20.08;64.96
80186;BME280;69904;52.122;5.422;2023-06-19T08:35:41;101237.91;;;20.14;64.66
80186;BME280;69904;52.122;5.422;2023-06-19T08:38:08;101253.63;;;20.19;64.59
80186;BME280;69904;52.122;5.422;2023-06-19T08:40:34;101260.69;;;20.32;64.97
80186;BME280;69904;52.122;5.422;2023-06-19T08:43:00;101256.09;;;20.37;63.95
80186;BME280;69904;52.122;5.422;2023-06-19T08:45:27;101267.75;;;20.44;63.13
80186;BME280;69904;52.122;5.422;2023-06-19T08:48:01;101264.75;;;20.46;63.20
80186;BME280;69904;52.122;5.422;2023-06-19T08:50:33;101279.19;;;20.41;64.24
80186;BME280;69904;52.122;5.422;2023-06-19T08:52:59;101284.34;;;20.54;63.71
80186;BME280;69904;52.122;5.422;2023-06-19T08:55:26;101281.63;;;20.38;63.41
80186;BME280;69904;52.122;5.422;2023-06-19T08:57:52;101274.88;;;20.45;63.23
80186;BME280;69904;52.122;5.422;2023-06-19T09:00:22;101280.94;;;20.47;63.03
80186;BME280;69904;52.122;5.422;2023-06-19T09:02:50;101279.34;;;20.51;63.49
80186;BME280;69904;52.122;5.422;2023-06-19T09:05:41;101278.09;;;20.59;63.20
80186;BME280;69904;52.122;5.422;2023-06-19T09:08:13;101271.94;;;20.52;63.53
80186;BME280;69904;52.122;5.422;2023-06-19T09:10:39;101284.34;;;20.54;63.36
80186;BME280;69904;52.122;5.422;2023-06-19T09:13:06;101286.47;;;20.52;63.85
80186;BME280;69904;52.122;5.422;2023-06-19T09:15:37;101285.44;;;20.37;64.28
80186;BME280;69904;52.122;5.422;2023-06-19T09:18:08;101291.13;;;20.52;63.67
80186;BME280;69904;52.122;5.422;2023-06-19T09:20:38;101293.31;;;20.50;63.36
80186;BME280;69904;52.122;5.422;2023-06-19T09:23:06;101295.19;;;20.66;63.49
80186;BME280;69904;52.122;5.422;2023-06-19T09:25:44;101288.25;;;20.80;63.16
80186;BME280;69904;52.122;5.422;2023-06-19T09:28:20;101291.38;;;20.67;62.69
80186;BME280;69904;52.122;5.422;2023-06-19T09:30:59;101301.03;;;20.53;63.24
80186;BME280;69904;52.122;5.422;2023-06-19T09:33:28;101299.94;;;20.54;63.65
80186;BME280;69904;52.122;5.422;2023-06-19T09:35:56;101305.19;;;20.55;63.28
80186;BME280;69904;52.122;5.422;2023-06-19T09:38:31;101315.09;;;20.56;63.00
80186;BME280;69904;52.122;5.422;2023-06-19T09:41:00;101313.59;;;20.49;62.67
80186;BME280;69904;52.122;5.422;2023-06-19T09:43:38;101322.63;;;20.66;62.46
80186;BME280;69904;52.122;5.422;2023-06-19T09:46:06;101321.09;;;20.75;62.49
80186;BME280;69904;52.122;5.422;2023-06-19T09:48:34;101321.81;;;20.87;62.00
80186;BME280;69904;52.122;5.422;2023-06-19T09:51:09;101323.63;;;20.98;61.66
80186;BME280;69904;52.122;5.422;2023-06-19T09:53:37;101331.16;;;21.08;61.41
80186;BME280;69904;52.122;5.422;2023-06-19T09:56:03;101333.81;;;21.20;60.76
80186;BME280;69904;52.122;5.422;2023-06-19T09:58:30;101347.47;;;21.36;59.68
80186;BME280;69904;52.122;5.422;2023-06-19T10:00:58;101336.59;;;21.47;60.14
80186;BME280;69904;52.122;5.422;2023-06-19T10:03:32;101342.13;;;21.52;59.48
80186;BME280;69904;52.122;5.422;2023-06-19T10:06:00;101346.59;;;21.58;59.10
80186;BME280;69904;52.122;5.422;2023-06-19T10:08:31;101343.28;;;21.56;58.75
80186;BME280;69904;52.122;5.422;2023-06-19T10:10:58;101347.88;;;21.50;59.01
80186;BME280;69904;52.122;5.422;2023-06-19T10:13:30;101338.88;;;21.55;58.27
80186;BME280;69904;52.122;5.422;2023-06-19T10:15:57;101334.31;;;21.65;57.99
80186;BME280;69904;52.122;5.422;2023-06-19T10:18:24;101327.47;;;21.68;58.36
80186;BME280;69904;52.122;5.422;2023-06-19T10:20:51;101328.19;;;21.85;58.36
80186;BME280;69904;52.122;5.422;2023-06-19T10:23:19;101340.03;;;21.91;57.71
80186;BME280;69904;52.122;5.422;2023-06-19T10:25:58;101330.28;;;22.00;57.16
80186;BME280;69904;52.122;5.422;2023-06-19T10:28:32;101332.94;;;22.21;56.67
80186;BME280;69904;52.122;5.422;2023-06-19T10:31:03;101336.59;;;22.32;56.64
80186;BME280;69904;52.122;5.422;2023-06-19T10:33:36;101337.28;;;22.54;55.86
80186;BME280;69904;52.122;5.422;2023-06-19T10:36:17;101339.69;;;22.41;56.01
80186;BME280;69904;52.122;5.422;2023-06-19T10:38:45;101327.38;;;22.48;56.27
80186;BME280;69904;52.122;5.422;2023-06-19T10:41:17;101333.94;;;22.79;55.62
80186;BME280;69904;52.122;5.422;2023-06-19T10:44:06;101337.94;;;22.66;55.36
80186;BME280;69904;52.122;5.422;2023-06-19T10:46:36;101326.56;;;22.90;54.92
80186;BME280;69904;52.122;5.422;2023-06-19T10:49:04;101327.72;;;23.09;54.29
80186;BME280;69904;52.122;5.422;2023-06-19T10:51:35;101329.19;;;23.27;54.20
80186;BME280;69904;52.122;5.422;2023-06-19T10:54:01;101331.25;;;22.94;53.74
80186;BME280;69904;52.122;5.422;2023-06-19T10:56:28;101338.59;;;22.79;53.59
80186;BME280;69904;52.122;5.422;2023-06-19T10:59:05;101334.25;;;22.93;53.21
80186;BME280;69904;52.122;5.422;2023-06-19T11:01:36;101322.72;;;22.91;53.28
80186;BME280;69904;52.122;5.422;2023-06-19T11:04:05;101326.06;;;23.08;52.71
80186;BME280;69904;52.122;5.422;2023-06-19T11:06:32;101326.22;;;23.43;52.87
80186;BME280;69904;52.122;5.422;2023-06-19T11:09:00;101335.13;;;23.71;52.05
80186;BME280;69904;52.122;5.422;2023-06-19T11:11:45;101332.66;;;23.84;51.45
80186;BME280;69904;52.122;5.422;2023-06-19T11:14:14;101323.53;;;23.64;50.75
80186;BME280;69904;52.122;5.422;2023-06-19T11:16:43;101332.31;;;23.50;51.46
80186;BME280;69904;52.122;5.422;2023-06-19T11:19:17;101318.84;;;23.54;51.80
80186;BME280;69904;52.122;5.422;2023-06-19T11:21:49;101326.22;;;23.43;51.26
80186;BME280;69904;52.122;5.422;2023-06-19T11:24:17;101327.53;;;23.31;51.22
80186;BME280;69904;52.122;5.422;2023-06-19T11:26:46;101332.97;;;23.05;51.65
80186;BME280;69904;52.122;5.422;2023-06-19T11:29:18;101340.09;;;23.01;51.38
80186;BME280;69904;52.122;5.422;2023-06-19T11:31:45;101339.06;;;23.18;51.28
80186;BME280;69904;52.122;5.422;2023-06-19T11:34:14;101335.63;;;23.47;50.80
80186;BME280;69904;52.122;5.422;2023-06-19T11:36:41;101323.56;;;23.79;50.92
80186;BME280;69904;52.122;5.422;2023-06-19T11:39:13;101331.00;;;23.88;50.93
80186;BME280;69904;52.122;5.422;2023-06-19T11:41:40;101338.75;;;24.07;49.56
80186;BME280;69904;52.122;5.422;2023-06-19T11:44:07;101336.25;;;23.95;50.07
80186;BME280;69904;52.122;5.422;2023-06-19T11:46:37;101334.06;;;24.07;50.08
80186;BME280;69904;52.122;5.422;2023-06-19T11:49:08;101336.59;;;24.24;49.70
80186;BME280;69904;52.122;5.422;2023-06-19T11:51:35;101338.75;;;23.97;50.71
80186;BME280;69904;52.122;5.422;2023-06-19T11:54:03;101333.22;;;24.12;48.91
80186;BME280;69904;52.122;5.422;2023-06-19T11:56:30;101344.28;;;24.27;48.31
80186;BME280;69904;52.122;5.422;2023-06-19T11:58:56;101339.31;;;24.49;48.81
80186;BME280;69904;52.122;5.422;2023-06-19T12:01:23;101333.81;;;24.39;49.54
80186;BME280;69904;52.122;5.422;2023-06-19T12:03:49;101331.59;;;24.46;48.50
80186;BME280;69904;52.122;5.422;2023-06-19T12:06:16;101334.03;;;24.63;47.20
80186;BME280;69904;52.122;5.422;2023-06-19T12:08:44;101336.25;;;24.61;46.60
80186;BME280;69904;52.122;5.422;2023-06-19T12:11:10;101342.09;;;24.39;46.48
80186;BME280;69904;52.122;5.422;2023-06-19T12:13:42;101337.09;;;24.36;47.14
80186;BME280;69904;52.122;5.422;2023-06-19T12:16:13;101334.06;;;24.43;46.92
80186;BME280;69904;52.122;5.422;2023-06-19T12:18:40;101333.50;;;24.61;47.16
80186;BME280;69904;52.122;5.422;2023-06-19T12:21:07;101331.56;;;24.71;47.03
80186;BME280;69904;52.122;5.422;2023-06-19T12:23:47;101333.78;;;24.54;47.02
80186;BME280;69904;52.122;5.422;2023-06-19T12:26:14;101342.91;;;24.55;46.68
80186;BME280;69904;52.122;5.422;2023-06-19T12:28:40;101336.50;;;24.69;46.45
80186;BME280;69904;52.122;5.422;2023-06-19T12:31:07;101339.50;;;24.98;46.77
80186;BME280;69904;52.122;5.422;2023-06-19T12:33:34;101344.63;;;25.30;46.86
80186;BME280;69904;52.122;5.422;2023-06-19T12:36:01;101341.84;;;25.35;45.23
80186;BME280;69904;52.122;5.422;2023-06-19T12:38:28;101342.81;;;25.05;45.33
80186;BME280;69904;52.122;5.422;2023-06-19T12:40:54;101344.25;;;24.88;44.93
80186;BME280;69904;52.122;5.422;2023-06-19T12:43:21;101348.59;;;25.09;45.48
80186;BME280;69904;52.122;5.422;2023-06-19T12:45:47;101351.81;;;25.31;45.16
80186;BME280;69904;52.122;5.422;2023-06-19T12:48:14;101346.88;;;25.18;45.55
80186;BME280;69904;52.122;5.422;2023-06-19T12:50:40;101349.41;;;25.14;45.37
80186;BME280;69904;52.122;5.422;2023-06-19T12:53:07;101347.41;;;25.25;43.58
80186;BME280;69904;52.122;5.422;2023-06-19T12:55:33;101352.13;;;25.20;43.16